createdAt,value
2019-01-24T00:00:13.294Z,0.00
2019-01-24T00:01:13.378Z,0.00
2019-01-24T00:02:13.469Z,0.00
2019-01-24T00:03:13.557Z,0.00
2019-01-24T00:04:16.829Z,0.00
2019-01-24T00:05:13.718Z,0.00
2019-01-24T00:06:13.805Z,0.00
2019-01-24T00:07:13.889Z,0.00
2019-01-24T00:08:13.973Z,0.00
2019-01-24T00:09:14.056Z,0.00
2019-01-24T00:10:14.145Z,0.00
2019-01-24T00:11:14.225Z,0.00
2019-01-24T00:12:14.313Z,0.00
2019-01-24T00:13:14.402Z,0.00
2019-01-24T00:14:14.498Z,0.00
2019-01-24T00:15:14.565Z,0.00
2019-01-24T00:16:14.677Z,0.00
2019-01-24T00:17:14.732Z,0.00
2019-01-24T00:18:14.820Z,0.00
2019-01-24T00:19:14.907Z,0.00
2019-01-24T00:20:14.991Z,0.00
2019-01-24T00:21:15.079Z,0.00
2019-01-24T00:22:15.164Z,0.00
2019-01-24T00:23:15.247Z,0.00
2019-01-24T00:24:15.332Z,0.00
2019-01-24T00:25:15.419Z,0.00
2019-01-24T00:26:15.504Z,0.00
2019-01-24T00:27:15.592Z,0.00
2019-01-24T00:28:15.681Z,0.00
2019-01-24T00:29:15.760Z,0.00
2019-01-24T00:30:15.841Z,0.00
2019-01-24T00:31:15.924Z,0.00
2019-01-24T00:32:16.008Z,0.00
2019-01-24T00:33:16.091Z,0.00
2019-01-24T00:34:16.172Z,0.00
2019-01-24T00:35:16.259Z,0.00
2019-01-24T00:36:16.343Z,0.00
2019-01-24T00:37:16.432Z,0.00
2019-01-24T00:38:16.510Z,0.00
2019-01-24T00:39:16.594Z,0.00
2019-01-24T00:40:16.676Z,0.00
2019-01-24T00:41:16.761Z,0.00
2019-01-24T00:42:16.845Z,0.00
2019-01-24T00:43:16.943Z,0.00
2019-01-24T00:44:17.022Z,0.00
2019-01-24T00:45:17.107Z,0.00
2019-01-24T00:46:17.190Z,0.00
2019-01-24T00:47:17.268Z,0.00
2019-01-24T00:48:17.350Z,0.00
2019-01-24T00:49:17.437Z,0.00
2019-01-24T00:50:17.518Z,0.00
2019-01-24T00:51:17.597Z,0.00
2019-01-24T00:52:17.680Z,0.00
2019-01-24T00:53:17.765Z,0.00
2019-01-24T00:54:17.851Z,0.00
2019-01-24T00:55:17.933Z,0.00
2019-01-24T00:56:18.009Z,0.00
2019-01-24T00:57:18.086Z,0.00
2019-01-24T00:58:18.168Z,0.00
2019-01-24T00:59:18.242Z,0.00
2019-01-24T01:00:18.328Z,0.00
2019-01-24T01:01:18.405Z,0.00
2019-01-24T01:02:18.492Z,0.00
2019-01-24T01:03:18.586Z,0.00
2019-01-24T01:04:18.657Z,0.00
2019-01-24T01:05:18.741Z,0.00
2019-01-24T01:06:18.823Z,0.00
2019-01-24T01:07:18.905Z,0.00
2019-01-24T01:08:18.987Z,0.00
2019-01-24T01:09:19.073Z,0.00
2019-01-24T01:10:19.158Z,0.00
2019-01-24T01:11:19.244Z,0.00
2019-01-24T01:12:19.325Z,0.00
2019-01-24T01:13:19.410Z,0.00
2019-01-24T01:14:19.491Z,0.00
2019-01-24T01:15:19.575Z,0.00
2019-01-24T01:16:19.660Z,0.00
2019-01-24T01:17:19.741Z,0.00
2019-01-24T01:18:19.826Z,0.00
2019-01-24T01:19:19.910Z,0.00
2019-01-24T01:20:19.998Z,0.00
2019-01-24T01:21:20.079Z,0.00
2019-01-24T01:22:20.164Z,0.00
2019-01-24T01:23:20.247Z,0.00
2019-01-24T01:24:20.329Z,0.00
2019-01-24T01:25:20.420Z,0.00
2019-01-24T01:26:20.498Z,0.00
2019-01-24T01:27:20.582Z,0.00
2019-01-24T01:28:20.665Z,0.00
2019-01-24T01:29:20.747Z,0.00
2019-01-24T01:30:20.831Z,0.00
2019-01-24T01:31:20.917Z,0.00
2019-01-24T01:32:21.000Z,0.00
2019-01-24T01:33:21.097Z,0.00
2019-01-24T01:34:21.161Z,0.00
2019-01-24T01:35:21.246Z,0.00
2019-01-24T01:36:21.343Z,0.00
2019-01-24T01:37:21.422Z,0.00
2019-01-24T01:38:21.506Z,0.00
2019-01-24T01:39:21.592Z,0.00
2019-01-24T01:40:21.674Z,0.00
2019-01-24T01:41:21.759Z,0.00
2019-01-24T01:42:21.850Z,0.00
2019-01-24T01:43:21.934Z,0.00
2019-01-24T01:44:22.018Z,0.00
2019-01-24T01:45:22.101Z,0.00
2019-01-24T01:46:22.183Z,0.00
2019-01-24T01:47:22.269Z,0.00
2019-01-24T01:48:22.360Z,0.00
2019-01-24T01:49:22.445Z,0.00
2019-01-24T01:50:22.528Z,0.00
2019-01-24T01:51:22.612Z,0.00
2019-01-24T01:52:22.693Z,0.00
2019-01-24T01:53:22.780Z,0.00
2019-01-24T01:54:22.870Z,0.00
2019-01-24T01:55:22.953Z,0.00
2019-01-24T01:56:23.040Z,0.00
2019-01-24T01:57:23.127Z,0.00
2019-01-24T01:58:23.205Z,0.00
2019-01-24T01:59:23.288Z,0.00
2019-01-24T02:00:23.384Z,0.00
2019-01-24T02:01:23.467Z,0.00
2019-01-24T02:02:23.598Z,0.00
2019-01-24T02:03:23.642Z,0.00
2019-01-24T02:04:23.727Z,0.00
2019-01-24T02:05:23.812Z,0.00
2019-01-24T02:06:23.891Z,0.00
2019-01-24T02:07:23.979Z,0.00
2019-01-24T02:08:24.063Z,0.00
2019-01-24T02:09:24.143Z,0.00
2019-01-24T02:10:24.230Z,0.00
2019-01-24T02:11:24.312Z,0.00
2019-01-24T02:12:24.404Z,0.00
2019-01-24T02:13:24.490Z,0.00
2019-01-24T02:14:24.573Z,0.00
2019-01-24T02:15:24.654Z,0.00
2019-01-24T02:16:24.736Z,0.00
2019-01-24T02:17:24.818Z,0.00
2019-01-24T02:18:24.911Z,0.00
2019-01-24T02:19:24.994Z,0.00
2019-01-24T02:20:25.074Z,0.00
2019-01-24T02:21:25.157Z,0.00
2019-01-24T02:22:25.241Z,0.00
2019-01-24T02:23:25.317Z,0.00
2019-01-24T02:24:25.420Z,0.00
2019-01-24T02:25:25.502Z,0.00
2019-01-24T02:26:25.584Z,0.00
2019-01-24T02:27:25.673Z,0.00
2019-01-24T02:28:25.744Z,0.00
2019-01-24T02:29:25.833Z,0.00
2019-01-24T02:30:25.936Z,0.00
2019-01-24T02:32:57.996Z,0.00
2019-01-24T02:33:58.080Z,0.00
2019-01-24T02:34:58.152Z,0.00
2019-01-24T02:35:58.237Z,0.00
2019-01-24T02:36:58.320Z,0.00
2019-01-24T02:37:58.401Z,0.00
2019-01-24T02:38:58.484Z,0.00
2019-01-24T02:39:58.570Z,0.00
2019-01-24T02:40:58.649Z,0.00
2019-01-24T02:41:58.730Z,0.00
2019-01-24T02:42:58.812Z,0.00
2019-01-24T02:43:58.897Z,0.00
2019-01-24T02:44:58.979Z,0.00
2019-01-24T02:45:59.062Z,0.00
2019-01-24T02:46:59.146Z,0.00
2019-01-24T02:47:59.229Z,0.00
2019-01-24T02:48:59.313Z,0.00
2019-01-24T02:49:59.397Z,0.00
2019-01-24T02:50:59.482Z,0.00
2019-01-24T02:51:59.568Z,0.00
2019-01-24T02:52:59.653Z,0.00
2019-01-24T02:53:59.735Z,0.00
2019-01-24T02:54:59.817Z,0.00
2019-01-24T02:55:59.901Z,0.00
2019-01-24T02:56:59.983Z,0.00
2019-01-24T02:58:00.081Z,0.00
2019-01-24T02:59:00.163Z,0.00
2019-01-24T03:00:00.342Z,0.00
2019-01-24T03:01:00.331Z,0.00
2019-01-24T03:02:00.413Z,0.00
2019-01-24T03:03:00.508Z,0.00
2019-01-24T03:04:00.589Z,0.00
2019-01-24T03:05:00.671Z,0.00
2019-01-24T03:06:00.755Z,0.00
2019-01-24T03:07:00.837Z,0.00
2019-01-24T03:08:00.924Z,0.00
2019-01-24T03:09:01.003Z,0.00
2019-01-24T03:10:01.104Z,0.00
2019-01-24T03:11:01.182Z,0.00
2019-01-24T03:12:01.269Z,0.00
2019-01-24T03:13:01.349Z,0.00
2019-01-24T03:14:01.436Z,0.00
2019-01-24T03:15:01.516Z,0.00
2019-01-24T03:16:01.611Z,0.00
2019-01-24T03:17:01.691Z,0.00
2019-01-24T03:18:01.774Z,0.00
2019-01-24T03:19:01.856Z,0.00
2019-01-24T03:20:01.939Z,0.00
2019-01-24T03:21:02.022Z,0.00
2019-01-24T03:22:02.122Z,0.00
2019-01-24T03:23:02.210Z,0.00
2019-01-24T03:24:02.287Z,0.00
2019-01-24T03:25:02.374Z,0.00
2019-01-24T03:26:02.456Z,0.00
2019-01-24T03:27:02.544Z,0.00
2019-01-24T03:28:02.638Z,0.00
2019-01-24T03:29:02.715Z,0.00
2019-01-24T03:30:02.799Z,0.00
2019-01-24T03:31:02.881Z,0.00
2019-01-24T03:32:02.958Z,0.00
2019-01-24T03:33:03.061Z,0.00
2019-01-24T03:34:03.137Z,0.00
2019-01-24T03:35:04.462Z,0.00
2019-01-24T03:36:03.302Z,0.00
2019-01-24T03:37:03.391Z,0.00
2019-01-24T03:38:03.476Z,0.00
2019-01-24T03:39:03.559Z,0.00
2019-01-24T03:40:03.642Z,0.00
2019-01-24T03:41:03.724Z,0.00
2019-01-24T03:42:03.806Z,0.00
2019-01-24T03:43:03.890Z,0.00
2019-01-24T03:44:03.970Z,0.00
2019-01-24T03:45:04.058Z,0.00
2019-01-24T03:46:04.138Z,0.00
2019-01-24T03:47:04.222Z,0.00
2019-01-24T03:48:04.304Z,0.00
2019-01-24T03:49:04.387Z,0.00
2019-01-24T03:50:04.470Z,0.00
2019-01-24T03:51:04.553Z,0.00
2019-01-24T03:52:04.637Z,0.00
2019-01-24T03:53:04.726Z,0.00
2019-01-24T03:54:04.800Z,0.00
2019-01-24T03:55:04.889Z,0.00
2019-01-24T03:56:04.972Z,0.00
2019-01-24T03:57:05.057Z,0.00
2019-01-24T03:58:05.126Z,0.00
2019-01-24T03:59:05.210Z,0.00
2019-01-24T04:00:05.291Z,0.00
2019-01-24T04:01:05.377Z,0.00
2019-01-24T04:02:05.457Z,0.00
2019-01-24T04:03:05.541Z,0.00
2019-01-24T04:04:05.620Z,0.00
2019-01-24T04:05:11.771Z,0.00
2019-01-24T04:06:05.785Z,0.00
2019-01-24T04:07:05.870Z,0.00
2019-01-24T04:08:05.955Z,0.00
2019-01-24T04:09:06.039Z,0.00
2019-01-24T04:10:06.122Z,0.00
2019-01-24T04:11:06.207Z,0.00
2019-01-24T04:12:06.288Z,0.00
2019-01-24T04:13:06.373Z,0.00
2019-01-24T04:14:06.456Z,0.00
2019-01-24T04:15:06.538Z,0.00
2019-01-24T04:16:06.622Z,0.00
2019-01-24T04:17:06.705Z,0.00
2019-01-24T04:18:06.790Z,0.00
2019-01-24T04:19:06.873Z,0.00
2019-01-24T04:20:06.958Z,0.00
2019-01-24T04:21:07.043Z,0.00
2019-01-24T04:22:07.115Z,0.00
2019-01-24T04:23:07.201Z,0.00
2019-01-24T04:24:07.382Z,0.00
2019-01-24T04:25:07.339Z,0.00
2019-01-24T04:26:07.423Z,0.00
2019-01-24T04:27:07.507Z,0.00
2019-01-24T04:28:07.592Z,0.00
2019-01-24T04:29:07.673Z,0.00
2019-01-24T04:30:07.759Z,0.00
2019-01-24T04:31:07.841Z,0.00
2019-01-24T04:32:07.926Z,0.00
2019-01-24T04:33:08.010Z,0.00
2019-01-24T04:34:08.094Z,0.00
2019-01-24T04:35:08.178Z,0.00
2019-01-24T04:36:08.260Z,0.00
2019-01-24T04:37:08.346Z,0.00
2019-01-24T04:38:08.428Z,0.00
2019-01-24T04:39:08.521Z,0.00
2019-01-24T04:40:08.599Z,0.00
2019-01-24T04:41:08.691Z,0.00
2019-01-24T04:42:08.766Z,0.00
2019-01-24T04:43:08.849Z,0.00
2019-01-24T04:44:08.938Z,0.00
2019-01-24T04:45:09.018Z,0.00
2019-01-24T04:46:09.104Z,0.00
2019-01-24T04:47:09.190Z,0.00
2019-01-24T04:48:09.272Z,0.00
2019-01-24T04:49:09.357Z,0.00
2019-01-24T04:50:09.440Z,0.00
2019-01-24T04:51:09.524Z,0.00
2019-01-24T04:52:09.607Z,0.00
2019-01-24T04:53:09.696Z,0.00
2019-01-24T04:54:09.774Z,0.00
2019-01-24T04:55:09.885Z,0.00
2019-01-24T04:56:09.942Z,0.00
2019-01-24T04:57:10.037Z,0.00
2019-01-24T04:58:10.100Z,0.00
2019-01-24T04:59:10.186Z,0.00
2019-01-24T05:00:10.270Z,0.00
2019-01-24T05:01:10.353Z,0.00
2019-01-24T05:02:10.435Z,0.00
2019-01-24T05:03:10.516Z,0.00
2019-01-24T05:04:10.601Z,0.00
2019-01-24T05:05:10.683Z,0.00
2019-01-24T05:06:10.767Z,0.00
2019-01-24T05:07:10.850Z,0.00
2019-01-24T05:08:10.932Z,0.00
2019-01-24T05:09:11.014Z,0.00
2019-01-24T05:10:11.097Z,0.00
2019-01-24T05:11:11.179Z,0.00
2019-01-24T05:12:11.259Z,0.00
2019-01-24T05:13:11.345Z,0.00
2019-01-24T05:14:11.429Z,0.00
2019-01-24T05:15:11.516Z,0.00
2019-01-24T05:16:11.596Z,0.00
2019-01-24T05:17:11.678Z,0.00
2019-01-24T05:18:11.758Z,0.00
2019-01-24T05:19:11.845Z,0.00
2019-01-24T05:20:11.927Z,0.00
2019-01-24T05:21:12.013Z,0.00
2019-01-24T05:22:12.098Z,0.00
2019-01-24T05:23:12.182Z,0.00
2019-01-24T05:24:12.262Z,0.00
2019-01-24T05:25:12.351Z,0.00
2019-01-24T05:26:12.431Z,0.00
2019-01-24T05:27:12.514Z,0.00
2019-01-24T05:28:12.602Z,0.00
2019-01-24T05:29:12.683Z,0.00
2019-01-24T05:30:12.767Z,0.00
2019-01-24T05:31:12.852Z,0.00
2019-01-24T05:32:12.933Z,0.00
2019-01-24T05:33:13.015Z,0.00
2019-01-24T05:34:13.103Z,0.00
2019-01-24T05:35:13.186Z,0.00
2019-01-24T05:36:13.272Z,0.00
2019-01-24T05:37:13.346Z,0.00
2019-01-24T05:38:13.427Z,0.00
2019-01-24T05:39:13.513Z,0.00
2019-01-24T05:40:13.595Z,0.00
2019-01-24T05:41:13.675Z,0.00
2019-01-24T05:42:13.755Z,0.00
2019-01-24T05:43:13.839Z,0.00
2019-01-24T05:44:13.925Z,0.00
2019-01-24T05:45:14.005Z,0.00
2019-01-24T05:46:14.117Z,0.00
2019-01-24T05:47:14.178Z,0.00
2019-01-24T05:48:14.265Z,0.00
2019-01-24T05:49:14.347Z,0.00
2019-01-24T05:50:14.432Z,0.00
2019-01-24T05:51:14.517Z,0.00
2019-01-24T05:52:19.483Z,0.00
2019-01-24T05:53:14.704Z,0.00
2019-01-24T05:54:14.787Z,0.00
2019-01-24T05:55:14.875Z,0.00
2019-01-24T05:56:14.955Z,0.00
2019-01-24T05:57:15.041Z,0.00
2019-01-24T05:58:15.132Z,0.00
2019-01-24T05:59:15.216Z,0.00
2019-01-24T06:00:15.302Z,0.00
2019-01-24T06:01:15.383Z,0.00
2019-01-24T06:02:15.466Z,0.00
2019-01-24T06:03:15.553Z,0.00
2019-01-24T06:04:15.639Z,0.00
2019-01-24T06:05:15.725Z,0.00
2019-01-24T06:06:15.810Z,0.00
2019-01-24T06:07:15.898Z,0.00
2019-01-24T06:08:15.981Z,0.00
2019-01-24T06:09:16.062Z,0.00
2019-01-24T06:10:16.145Z,0.00
2019-01-24T06:11:16.231Z,0.00
2019-01-24T06:12:16.317Z,0.00
2019-01-24T06:13:16.402Z,0.00
2019-01-24T06:14:16.487Z,0.00
2019-01-24T06:15:16.571Z,0.00
2019-01-24T06:16:16.681Z,0.00
2019-01-24T06:17:16.764Z,0.00
2019-01-24T06:18:16.849Z,0.00
2019-01-24T06:19:16.936Z,0.00
2019-01-24T06:20:17.022Z,0.00
2019-01-24T06:21:17.105Z,0.00
2019-01-24T06:22:17.195Z,0.00
2019-01-24T06:23:17.274Z,0.00
2019-01-24T06:24:17.361Z,0.00
2019-01-24T06:25:17.448Z,0.00
2019-01-24T06:26:17.528Z,0.00
2019-01-24T06:27:17.615Z,0.00
2019-01-24T06:28:17.698Z,0.00
2019-01-24T06:29:17.784Z,0.00
2019-01-24T06:30:17.869Z,0.00
2019-01-24T06:31:17.954Z,0.00
2019-01-24T06:32:18.037Z,0.00
2019-01-24T06:33:18.119Z,0.00
2019-01-24T06:34:18.208Z,0.00
2019-01-24T06:35:18.294Z,0.00
2019-01-24T06:36:18.381Z,0.00
2019-01-24T06:37:18.463Z,0.00
2019-01-24T06:38:18.548Z,0.00
2019-01-24T06:39:18.631Z,0.00
2019-01-24T06:40:18.716Z,0.00
2019-01-24T06:41:18.802Z,0.00
2019-01-24T06:42:18.888Z,0.00
2019-01-24T06:43:18.964Z,0.00
2019-01-24T06:44:19.053Z,0.00
2019-01-24T06:45:19.131Z,0.00
2019-01-24T06:46:19.224Z,0.00
2019-01-24T06:47:19.307Z,0.00
2019-01-24T06:48:19.390Z,0.00
2019-01-24T06:49:19.476Z,0.00
2019-01-24T06:50:19.560Z,0.00
2019-01-24T06:51:19.645Z,0.00
2019-01-24T06:52:19.730Z,0.00
2019-01-24T06:53:19.814Z,0.00
2019-01-24T06:54:19.899Z,0.00
2019-01-24T06:55:19.982Z,0.00
2019-01-24T06:56:20.068Z,0.00
2019-01-24T06:57:20.151Z,0.00
2019-01-24T06:58:20.237Z,0.00
2019-01-24T06:59:20.331Z,0.00
2019-01-24T07:00:20.405Z,0.00
2019-01-24T07:01:20.489Z,0.00
2019-01-24T07:02:20.574Z,0.00
2019-01-24T07:03:20.662Z,0.00
2019-01-24T07:04:20.744Z,0.00
2019-01-24T07:05:20.829Z,0.00
2019-01-24T07:06:20.916Z,0.00
2019-01-24T07:07:21.000Z,0.00
2019-01-24T07:08:21.085Z,0.00
2019-01-24T07:09:21.169Z,0.00
2019-01-24T07:10:21.254Z,0.00
2019-01-24T07:11:21.339Z,0.00
2019-01-24T07:12:21.425Z,0.00
2019-01-24T07:13:21.514Z,0.00
2019-01-24T07:14:21.602Z,0.00
2019-01-24T07:15:21.685Z,0.00
2019-01-24T07:16:21.769Z,0.00
2019-01-24T07:17:21.853Z,0.00
2019-01-24T07:18:21.938Z,0.00
2019-01-24T07:19:22.024Z,0.00
2019-01-24T07:20:22.110Z,0.00
2019-01-24T07:21:22.195Z,0.00
2019-01-24T07:22:22.281Z,0.00
2019-01-24T07:23:22.364Z,0.00
2019-01-24T07:24:22.449Z,0.00
2019-01-24T07:25:22.533Z,0.00
2019-01-24T07:26:22.619Z,0.00
2019-01-24T07:27:22.702Z,0.00
2019-01-24T07:28:22.784Z,0.00
2019-01-24T07:29:22.875Z,0.00
2019-01-24T07:30:22.959Z,0.00
2019-01-24T07:31:23.042Z,5.63
2019-01-24T07:32:23.128Z,5.63
2019-01-24T07:33:23.211Z,5.63
2019-01-24T07:34:23.295Z,5.63
2019-01-24T07:35:23.379Z,5.63
2019-01-24T07:36:23.465Z,5.63
2019-01-24T07:37:23.550Z,5.63
2019-01-24T07:38:23.636Z,5.63
2019-01-24T07:39:23.725Z,5.63
2019-01-24T07:40:23.806Z,5.63
2019-01-24T07:41:23.894Z,5.63
2019-01-24T07:42:23.980Z,5.63
2019-01-24T07:43:24.064Z,5.63
2019-01-24T07:44:24.149Z,5.63
2019-01-24T07:45:24.240Z,5.63
2019-01-24T07:46:24.392Z,5.63
2019-01-24T07:47:24.452Z,5.63
2019-01-24T07:48:24.461Z,5.63
2019-01-24T07:49:24.628Z,5.63
2019-01-24T07:50:24.639Z,5.63
2019-01-24T07:51:24.728Z,5.63
2019-01-24T07:52:24.861Z,5.63
2019-01-24T07:53:24.919Z,5.63
2019-01-24T07:54:25.005Z,5.63
2019-01-24T07:55:25.098Z,5.63
2019-01-24T07:56:25.192Z,11.25
2019-01-24T07:57:25.256Z,11.25
2019-01-24T07:58:25.341Z,11.25
2019-01-24T07:59:25.426Z,11.25
2019-01-24T08:00:25.507Z,11.25
2019-01-24T08:01:25.598Z,11.25
2019-01-24T08:02:25.683Z,11.25
2019-01-24T08:03:25.770Z,11.25
2019-01-24T08:04:25.854Z,11.25
2019-01-24T08:05:25.944Z,11.25
2019-01-24T08:06:26.030Z,16.88
2019-01-24T08:07:26.220Z,16.88
2019-01-24T08:08:26.209Z,16.88
2019-01-24T08:09:26.289Z,16.88
2019-01-24T08:10:26.376Z,16.88
2019-01-24T08:11:26.460Z,16.88
2019-01-24T08:12:26.544Z,16.88
2019-01-24T08:13:26.631Z,16.88
2019-01-24T08:14:26.716Z,16.88
2019-01-24T08:15:26.801Z,16.88
2019-01-24T08:16:26.918Z,16.88
2019-01-24T08:17:26.999Z,16.88
2019-01-24T08:18:27.081Z,16.88
2019-01-24T08:19:27.169Z,16.88
2019-01-24T08:20:27.255Z,16.88
2019-01-24T08:21:27.337Z,16.88
2019-01-24T08:22:27.448Z,16.88
2019-01-24T08:23:27.505Z,22.50
2019-01-24T08:24:27.587Z,22.50
2019-01-24T08:25:27.718Z,22.50
2019-01-24T08:26:27.803Z,22.50
2019-01-24T08:27:27.889Z,22.50
2019-01-24T08:28:27.977Z,22.50
2019-01-24T08:29:28.060Z,22.50
2019-01-24T08:30:28.147Z,22.50
2019-01-24T08:31:28.230Z,28.13
2019-01-24T08:32:28.315Z,28.13
2019-01-24T08:33:28.397Z,28.13
2019-01-24T08:34:28.487Z,28.13
2019-01-24T08:35:28.573Z,28.13
2019-01-24T08:36:28.660Z,28.13
2019-01-24T08:37:28.740Z,28.13
2019-01-24T08:38:28.830Z,33.75
2019-01-24T08:39:28.912Z,33.75
2019-01-24T08:40:28.998Z,33.75
2019-01-24T08:41:37.829Z,33.75
2019-01-24T08:42:29.176Z,33.75
2019-01-24T08:43:29.256Z,33.75
2019-01-24T08:44:29.337Z,39.38
2019-01-24T08:45:29.423Z,39.38
2019-01-24T08:46:29.507Z,39.38
2019-01-24T08:47:29.600Z,39.38
2019-01-24T08:48:29.675Z,39.38
2019-01-24T08:49:29.767Z,45.00
2019-01-24T08:50:29.852Z,45.00
2019-01-24T08:51:29.938Z,45.00
2019-01-24T08:52:30.023Z,45.00
2019-01-24T08:53:30.107Z,45.00
2019-01-24T08:54:30.196Z,45.00
2019-01-24T08:55:30.285Z,50.63
2019-01-24T08:56:30.362Z,50.63
2019-01-24T08:57:30.450Z,50.63
2019-01-24T08:58:30.533Z,56.25
2019-01-24T08:59:30.625Z,56.25
2019-01-24T09:00:30.705Z,56.25
2019-01-24T09:01:30.791Z,61.88
2019-01-24T09:02:30.875Z,61.88
2019-01-24T09:03:30.962Z,67.50
2019-01-24T09:04:31.043Z,67.50
2019-01-24T09:05:31.130Z,67.50
2019-01-24T09:06:31.220Z,67.50
2019-01-24T09:07:31.305Z,73.13
2019-01-24T09:08:31.391Z,73.13
2019-01-24T09:09:31.472Z,78.75
2019-01-24T09:10:31.558Z,78.75
2019-01-24T09:11:31.644Z,84.38
2019-01-24T09:12:31.724Z,84.38
2019-01-24T09:13:31.806Z,90.00
2019-01-24T09:14:31.888Z,90.00
2019-01-24T09:15:31.976Z,90.00
2019-01-24T09:16:32.062Z,90.00
2019-01-24T09:17:32.143Z,95.63
2019-01-24T09:18:32.228Z,95.63
2019-01-24T09:19:32.312Z,95.63
2019-01-24T09:20:32.395Z,101.25
2019-01-24T09:21:32.480Z,101.25
2019-01-24T09:22:32.566Z,106.88
2019-01-24T09:23:32.651Z,106.88
2019-01-24T09:24:32.734Z,106.88
2019-01-24T09:25:32.824Z,112.50
2019-01-24T09:26:32.904Z,112.50
2019-01-24T09:27:32.991Z,112.50
2019-01-24T09:28:33.073Z,118.13
2019-01-24T09:29:33.148Z,118.13
2019-01-24T09:32:17.270Z,123.75
2019-01-24T09:33:17.355Z,129.38
2019-01-24T09:34:17.439Z,129.38
2019-01-24T09:35:17.525Z,129.38
2019-01-24T09:36:17.609Z,135.00
2019-01-24T09:37:17.690Z,135.00
2019-01-24T09:38:17.784Z,135.00
2019-01-24T09:39:17.870Z,135.00
2019-01-24T09:40:17.949Z,135.00
2019-01-24T09:41:18.060Z,140.63
2019-01-24T09:42:18.141Z,140.63
2019-01-24T09:43:18.224Z,140.63
2019-01-24T09:44:18.307Z,146.25
2019-01-24T09:45:18.392Z,146.25
2019-01-24T09:46:18.482Z,146.25
2019-01-24T09:47:18.551Z,146.25
2019-01-24T09:48:18.638Z,151.88
2019-01-24T09:49:18.721Z,151.88
2019-01-24T09:50:18.809Z,157.50
2019-01-24T09:51:18.893Z,163.13
2019-01-24T09:52:18.978Z,168.75
2019-01-24T09:53:19.065Z,174.38
2019-01-24T09:54:19.153Z,174.38
2019-01-24T09:55:19.236Z,180.00
2019-01-24T09:56:19.317Z,180.00
2019-01-24T09:57:19.403Z,180.00
2019-01-24T09:58:19.490Z,180.00
2019-01-24T09:59:19.576Z,180.00
2019-01-24T10:00:19.657Z,180.00
2019-01-24T10:01:19.752Z,180.00
2019-01-24T10:02:19.836Z,180.00
2019-01-24T10:03:19.923Z,180.00
2019-01-24T10:04:20.012Z,180.00
2019-01-24T10:05:20.090Z,185.63
2019-01-24T10:06:20.172Z,185.63
2019-01-24T10:07:20.258Z,185.63
2019-01-24T10:08:20.345Z,185.63
2019-01-24T10:09:20.437Z,185.63
2019-01-24T10:10:20.525Z,185.63
2019-01-24T10:11:23.597Z,191.25
2019-01-24T10:12:20.691Z,191.25
2019-01-24T10:13:20.775Z,191.25
2019-01-24T10:14:20.862Z,191.25
2019-01-24T10:15:20.948Z,191.25
2019-01-24T10:16:21.032Z,191.25
2019-01-24T10:17:21.112Z,191.25
2019-01-24T10:18:21.689Z,191.25
2019-01-24T10:19:21.282Z,191.25
2019-01-24T10:20:21.367Z,191.25
2019-01-24T10:21:21.454Z,191.25
2019-01-24T10:22:21.537Z,196.88
2019-01-24T10:23:21.622Z,196.88
2019-01-24T10:24:21.710Z,196.88
2019-01-24T10:25:21.790Z,202.50
2019-01-24T10:26:21.877Z,202.50
2019-01-24T10:27:21.960Z,202.50
2019-01-24T10:28:22.048Z,202.50
2019-01-24T10:29:22.131Z,208.13
2019-01-24T10:30:22.238Z,202.50
2019-01-24T10:31:22.337Z,202.50
2019-01-24T10:32:22.422Z,202.50
2019-01-24T10:33:22.507Z,202.50
2019-01-24T10:34:22.591Z,202.50
2019-01-24T10:35:22.681Z,202.50
2019-01-24T10:36:22.773Z,202.50
2019-01-24T10:37:22.861Z,208.13
2019-01-24T10:38:22.945Z,213.75
2019-01-24T10:39:23.026Z,213.75
2019-01-24T10:40:23.130Z,219.38
2019-01-24T10:41:23.202Z,219.38
2019-01-24T10:42:23.288Z,219.38
2019-01-24T10:43:23.372Z,225.00
2019-01-24T10:44:23.457Z,225.00
2019-01-24T10:45:23.541Z,225.00
2019-01-24T10:46:23.627Z,219.38
2019-01-24T10:47:23.734Z,230.63
2019-01-24T10:48:23.824Z,230.63
2019-01-24T10:49:23.909Z,236.25
2019-01-24T10:50:23.996Z,236.25
2019-01-24T10:51:24.081Z,236.25
2019-01-24T10:52:24.166Z,236.25
2019-01-24T10:53:24.252Z,241.88
2019-01-24T10:54:24.338Z,241.88
2019-01-24T10:55:24.424Z,241.88
2019-01-24T10:56:24.508Z,247.50
2019-01-24T10:57:24.596Z,247.50
2019-01-24T10:58:24.678Z,253.13
2019-01-24T10:59:24.765Z,253.13
2019-01-24T11:00:24.851Z,258.75
2019-01-24T11:01:24.938Z,258.75
2019-01-24T11:02:25.021Z,258.75
2019-01-24T11:03:25.116Z,264.38
2019-01-24T11:04:25.186Z,264.38
2019-01-24T11:05:25.271Z,258.75
2019-01-24T11:06:25.361Z,264.38
2019-01-24T11:07:25.443Z,264.38
2019-01-24T11:08:25.533Z,264.38
2019-01-24T11:09:25.615Z,264.38
2019-01-24T11:10:25.712Z,264.38
2019-01-24T11:11:25.787Z,264.38
2019-01-24T11:12:25.872Z,264.38
2019-01-24T11:13:25.957Z,275.63
2019-01-24T11:14:26.043Z,270.00
2019-01-24T11:15:26.130Z,275.63
2019-01-24T11:16:26.219Z,275.63
2019-01-24T11:17:26.305Z,275.63
2019-01-24T11:18:26.391Z,270.00
2019-01-24T11:19:26.477Z,275.63
2019-01-24T11:20:26.564Z,270.00
2019-01-24T11:21:26.653Z,264.38
2019-01-24T11:22:26.738Z,270.00
2019-01-24T11:23:26.826Z,270.00
2019-01-24T11:24:26.914Z,264.38
2019-01-24T11:25:26.999Z,264.38
2019-01-24T11:26:27.089Z,270.00
2019-01-24T11:27:27.172Z,270.00
2019-01-24T11:28:27.540Z,270.00
2019-01-24T11:29:27.344Z,270.00
2019-01-24T11:30:27.430Z,270.00
2019-01-24T11:31:27.521Z,275.63
2019-01-24T11:32:27.603Z,275.63
2019-01-24T11:33:27.689Z,275.63
2019-01-24T11:34:27.780Z,275.63
2019-01-24T11:35:27.862Z,275.63
2019-01-24T11:36:27.946Z,275.63
2019-01-24T11:37:28.029Z,275.63
2019-01-24T11:38:28.113Z,275.63
2019-01-24T11:39:28.199Z,275.63
2019-01-24T11:40:28.286Z,281.25
2019-01-24T11:41:28.371Z,281.25
2019-01-24T11:42:28.453Z,281.25
2019-01-24T11:43:28.536Z,275.63
2019-01-24T11:44:28.625Z,281.25
2019-01-24T11:45:29.295Z,281.25
2019-01-24T11:46:28.778Z,281.25
2019-01-24T11:47:28.868Z,281.25
2019-01-24T11:48:28.956Z,281.25
2019-01-24T11:49:29.049Z,281.25
2019-01-24T11:50:29.133Z,286.88
2019-01-24T11:51:29.231Z,275.63
2019-01-24T11:52:29.319Z,275.63
2019-01-24T11:53:29.407Z,275.63
2019-01-24T11:54:29.488Z,275.63
2019-01-24T11:55:29.587Z,275.63
2019-01-24T11:56:29.674Z,281.25
2019-01-24T11:57:29.767Z,281.25
2019-01-24T11:58:29.858Z,281.25
2019-01-24T11:59:29.962Z,286.88
2019-01-24T12:00:30.075Z,286.88
2019-01-24T12:01:30.165Z,292.50
2019-01-24T12:02:30.256Z,286.88
2019-01-24T12:03:30.348Z,286.88
2019-01-24T12:04:30.433Z,275.63
2019-01-24T12:05:30.521Z,270.00
2019-01-24T12:06:30.610Z,270.00
2019-01-24T12:07:30.698Z,270.00
2019-01-24T12:08:30.786Z,264.38
2019-01-24T12:09:30.873Z,264.38
2019-01-24T12:10:30.966Z,270.00
2019-01-24T12:11:31.066Z,264.38
2019-01-24T12:12:31.148Z,264.38
2019-01-24T12:13:31.238Z,264.38
2019-01-24T12:14:31.326Z,264.38
2019-01-24T12:15:31.409Z,264.38
2019-01-24T12:16:31.497Z,264.38
2019-01-24T12:17:31.586Z,264.38
2019-01-24T12:18:31.665Z,264.38
2019-01-24T12:19:31.749Z,270.00
2019-01-24T12:20:31.839Z,264.38
2019-01-24T12:21:31.930Z,264.38
2019-01-24T12:22:32.030Z,264.38
2019-01-24T12:23:32.108Z,264.38
2019-01-24T12:24:32.199Z,264.38
2019-01-24T12:25:32.308Z,264.38
2019-01-24T12:26:32.400Z,264.38
2019-01-24T12:27:32.497Z,264.38
2019-01-24T12:28:32.579Z,264.38
2019-01-24T12:29:32.670Z,264.38
2019-01-24T12:30:32.760Z,264.38
2019-01-24T12:31:32.850Z,264.38
2019-01-24T12:32:32.940Z,258.75
2019-01-24T12:33:33.026Z,258.75
2019-01-24T12:34:33.115Z,258.75
2019-01-24T12:35:33.204Z,258.75
2019-01-24T12:36:33.297Z,253.13
2019-01-24T12:37:33.385Z,253.13
2019-01-24T12:38:33.462Z,247.50
2019-01-24T12:39:33.549Z,247.50
2019-01-24T12:40:33.641Z,241.88
2019-01-24T12:41:33.730Z,241.88
2019-01-24T12:42:33.821Z,241.88
2019-01-24T12:43:33.911Z,236.25
2019-01-24T12:44:33.992Z,236.25
2019-01-24T12:45:34.101Z,230.63
2019-01-24T12:46:34.174Z,230.63
2019-01-24T12:47:34.277Z,230.63
2019-01-24T12:48:34.358Z,236.25
2019-01-24T12:49:34.454Z,236.25
2019-01-24T12:50:34.551Z,241.88
2019-01-24T12:51:34.645Z,247.50
2019-01-24T12:52:34.727Z,253.13
2019-01-24T12:53:34.830Z,247.50
2019-01-24T12:54:34.908Z,247.50
2019-01-24T12:55:34.998Z,247.50
2019-01-24T12:56:35.085Z,247.50
2019-01-24T12:57:35.173Z,241.88
2019-01-24T12:58:35.262Z,241.88
2019-01-24T12:59:35.352Z,236.25
2019-01-24T13:00:35.443Z,236.25
2019-01-24T13:01:35.538Z,230.63
2019-01-24T13:02:35.629Z,230.63
2019-01-24T13:03:35.713Z,230.63
2019-01-24T13:04:35.795Z,225.00